General Aviation Weather

Text Reports

Enter one or more of the following location identifiers separated by a space:

Zip Code, Four-Character ICAO or Three-Character IATA airport codes.

METAR - Aviation Routine Weather Report
KPNT - Pontiac, Illinois
Updated at 12:15 AM GMT on August 01, 2014 (7:15 PM CDT):
METAR KPNT 010015Z AUTO 00000KT 10SM CLR 25/18 A3005 RMK AO2
TAF - Terminal Area Forecast
KPNT - Pontiac, Illinois
Updated at 12:15 AM GMT on August 01, 2014 (7:15 PM CDT):
No TAF is currently available for this location.
Decoded:
No decoded TAF is available.
PIREP - Pilot Weather Report
KPNT - Pontiac, Illinois
Updated at 12:15 AM GMT on August 01, 2014 (7:15 PM CDT):
No PIREP is currently available for this location.
AIRMET - Airmens Meteorological Information
KPNT - Pontiac, Illinois
Updated at 12:15 AM GMT on August 01, 2014 (7:15 PM CDT):
No AIRMET is currently available for this location.
SIGMET - Significant Meteorological Information
KPNT - Pontiac, Illinois
Updated at 12:15 AM GMT on August 01, 2014 (7:15 PM CDT):
No SIGMET is currently available for this location.
NOTAM - Notice to Airmen
KPNT - Pontiac, Illinois
Updated at 12:15 AM GMT on August 01, 2014 (7:15 PM CDT):
No NOTAM is currently available for this location.
Forecast Area
KPNT - Pontiac, Illinois
Updated at 12:15 AM GMT on August 01, 2014 (7:15 PM CDT):
No NOTAM is currently available for this location.
Aviation Weather Maps